Time;durP1;ratioP1;P1;durP2;ratioP2;P2;SDS_P1;SDS_P2;PMS_P1;PMS_P2;Temp;Humidity;BMP_temperature;BMP_pressure;BME280_temperature;BME280_humidity;BME280_pressure;Samples;Min_cycle;Max_cycle;Signal;HPM_P1;HPM_P2
2022/03/22 00:01:04;;;;;;;48.60;31.63;;;4.50;99.90;;;;;;5102137;27;20542;-81
2022/03/22 00:03:30;;;;;;;51.27;33.37;;;4.50;99.90;;;;;;5119217;27;20049;-80
2022/03/22 00:05:56;;;;;;;53.47;33.37;;;4.40;99.90;;;;;;5118816;27;20039;-76
2022/03/22 00:08:22;;;;;;;49.83;32.75;;;4.40;99.90;;;;;;5118257;27;20139;-76
2022/03/22 00:10:48;;;;;;;49.00;32.37;;;4.40;99.90;;;;;;5136019;27;20509;-75
2022/03/22 00:13:14;;;;;;;53.30;34.90;;;4.30;99.90;;;;;;5135772;27;20074;-81
2022/03/22 00:15:40;;;;;;;48.50;32.93;;;4.20;99.90;;;;;;5101767;27;20492;-76
2022/03/22 00:18:06;;;;;;;43.47;29.33;;;4.20;99.90;;;;;;5101775;27;20086;-75
2022/03/22 00:20:32;;;;;;;49.10;31.73;;;4.00;99.90;;;;;;5118438;27;20043;-76
2022/03/22 00:22:58;;;;;;;47.37;30.60;;;3.90;99.90;;;;;;5135429;27;20050;-81
2022/03/22 00:25:24;;;;;;;44.60;29.30;;;3.80;99.90;;;;;;5135288;27;20104;-76
2022/03/22 00:27:53;;;;;;;44.67;27.40;;;3.70;99.90;;;;;;5135470;27;20078;-76
2022/03/22 00:30:19;;;;;;;39.93;26.23;;;3.60;99.90;;;;;;5118133;27;20054;-81
2022/03/22 00:32:46;;;;;;;37.60;25.43;;;3.40;99.90;;;;;;5118145;27;20043;-76
2022/03/22 00:35:12;;;;;;;46.07;28.50;;;3.20;99.90;;;;;;5135478;27;20417;-76
2022/03/22 00:37:42;;;;;;;50.03;31.63;;;3.10;99.90;;;;;;5101015;27;20051;-81
2022/03/22 00:40:18;;;;;;;51.97;33.13;;;3.10;99.90;;;;;;5085029;27;20496;-80
2022/03/22 00:42:46;;;;;;;52.43;33.47;;;3.10;99.90;;;;;;5119225;27;20058;-75
2022/03/22 00:45:19;;;;;;;53.70;33.50;;;3.10;1.00;;;;;;5135224;27;20050;-76
2022/03/22 00:47:50;;;;;;;60.65;38.40;;;3.20;1.00;;;;;;5135147;27;20088;-75
2022/03/22 00:50:19;;;;;;;52.17;33.80;;;3.20;1.00;;;;;;5117883;27;20075;-81
2022/03/22 00:52:45;;;;;;;55.30;34.43;;;3.20;1.00;;;;;;5134920;27;20146;-80
2022/03/22 00:55:12;;;;;;;42.27;27.93;;;3.10;1.00;;;;;;5118133;27;20042;-77
2022/03/22 00:57:39;;;;;;;56.33;33.17;;;3.10;1.00;;;;;;5134672;27;20068;-80
2022/03/22 01:00:08;;;;;;;52.87;33.70;;;3.10;1.00;;;;;;5134710;27;20070;-76
2022/03/22 01:02:36;;;;;;;53.17;36.37;;;3.10;1.00;;;;;;5134976;27;20474;-75
2022/03/22 01:05:07;;;;;;;59.40;35.23;;;3.10;1.00;;;;;;5100503;27;20130;-80
2022/03/22 01:07:34;;;;;;;52.70;35.13;;;3.20;1.00;;;;;;5134598;27;20069;-81
2022/03/22 01:10:05;;;;;;;50.47;31.93;;;3.20;1.00;;;;;;5134554;27;20051;-80
2022/03/22 01:12:35;;;;;;;48.33;31.43;;;3.20;1.00;;;;;;5134777;27;20581;-81
2022/03/22 01:15:03;;;;;;;59.13;35.80;;;3.10;1.00;;;;;;5134761;27;20054;-75
2022/03/22 01:17:31;;;;;;;58.77;36.50;;;3.20;1.00;;;;;;5134345;27;20049;-81
2022/03/22 01:19:57;;;;;;;55.17;34.10;;;3.10;1.00;;;;;;5134645;27;20043;-80
2022/03/22 01:22:25;;;;;;;48.70;32.47;;;3.10;1.00;;;;;;5083658;27;20505;-76
2022/03/22 01:24:52;;;;;;;51.77;31.93;;;3.10;1.00;;;;;;5117070;27;20043;-76
2022/03/22 01:27:22;;;;;;;54.33;33.30;;;3.10;1.00;;;;;;5116793;27;20043;-76
2022/03/22 01:29:48;;;;;;;51.87;32.77;;;3.10;1.00;;;;;;5100821;27;20375;-76
2022/03/22 01:32:15;;;;;;;58.90;37.03;;;3.10;11.40;;;;;;5134006;27;20047;-80
2022/03/22 01:34:42;;;;;;;56.50;36.43;;;3.10;19.70;;;;;;5117340;27;20371;-76
2022/03/22 01:37:09;;;;;;;56.50;36.67;;;3.10;37.10;;;;;;5134010;27;20050;-81
2022/03/22 01:39:35;;;;;;;56.47;36.53;;;3.20;74.20;;;;;;5100253;27;20484;-76
2022/03/22 01:42:01;;;;;;;67.30;37.97;;;3.20;99.90;;;;;;5116680;27;20045;-76
2022/03/22 01:44:28;;;;;;;59.50;38.50;;;3.30;99.90;;;;;;5134072;27;20039;-80
2022/03/22 01:47:03;;;;;;;59.13;38.20;;;3.30;99.90;;;;;;5116902;27;20039;-80
2022/03/22 01:49:29;;;;;;;58.87;37.43;;;3.30;99.90;;;;;;5133800;27;20131;-80
2022/03/22 01:51:55;;;;;;;59.17;37.90;;;3.40;99.90;;;;;;5115663;27;20064;-80
2022/03/22 01:54:22;;;;;;;70.23;39.80;;;3.40;99.90;;;;;;5133647;27;20089;-79
2022/03/22 01:56:49;;;;;;;60.77;39.40;;;3.40;99.90;;;;;;5116529;27;20050;-81
2022/03/22 01:59:15;;;;;;;60.40;37.43;;;3.40;99.90;;;;;;5116632;27;20039;-80
2022/03/22 02:07:14;;;;;;;56.00;37.13;;;3.50;99.90;;;;;;5133328;27;20128;-76
2022/03/22 02:09:41;;;;;;;58.67;38.03;;;3.50;99.90;;;;;;5098919;27;20055;-80
2022/03/22 02:12:07;;;;;;;56.33;36.83;;;3.50;99.90;;;;;;5116208;27;20054;-76
2022/03/22 02:14:33;;;;;;;61.23;38.47;;;3.50;99.90;;;;;;5116456;27;20498;-81
2022/03/22 02:17:05;;;;;;;54.97;35.67;;;3.50;99.90;;;;;;5116331;27;20043;-75
2022/03/22 02:19:31;;;;;;;55.97;39.17;;;3.50;99.90;;;;;;5117092;27;20303;-80
2022/03/22 02:22:01;;;;;;;61.20;39.47;;;3.60;99.90;;;;;;5133393;27;20485;-76
2022/03/22 02:24:27;;;;;;;61.47;39.27;;;3.60;99.90;;;;;;5116006;27;20067;-81
2022/03/22 02:26:52;;;;;;;56.13;37.70;;;3.60;99.90;;;;;;5099174;27;20096;-76
2022/03/22 02:29:18;;;;;;;62.20;38.73;;;3.60;99.90;;;;;;5082127;27;20051;-80
2022/03/22 02:31:44;;;;;;;54.97;38.43;;;3.70;99.90;;;;;;5115677;27;20039;-80
2022/03/22 02:34:10;;;;;;;60.70;38.77;;;3.70;99.90;;;;;;5115762;27;20047;-80
2022/03/22 02:36:35;;;;;;;60.73;39.43;;;3.70;99.90;;;;;;5132628;27;20039;-76
2022/03/22 02:39:01;;;;;;;58.10;38.70;;;3.70;99.90;;;;;;5132686;27;20046;-76
2022/03/22 02:41:27;;;;;;;58.10;38.20;;;3.70;99.90;;;;;;5132945;27;20413;-81
2022/03/22 02:43:54;;;;;;;62.17;40.47;;;3.70;99.90;;;;;;5132665;27;20039;-75
2022/03/22 02:46:20;;;;;;;61.47;39.50;;;3.70;99.90;;;;;;5115796;27;20045;-80
2022/03/22 02:48:46;;;;;;;64.97;40.87;;;3.70;99.90;;;;;;5115729;27;20054;-80
2022/03/22 02:51:13;;;;;;;57.97;38.37;;;3.70;99.90;;;;;;5115401;27;20071;-80
2022/03/22 02:53:39;;;;;;;62.70;40.67;;;3.80;99.90;;;;;;5132777;27;20075;-81
2022/03/22 02:56:05;;;;;;;61.87;39.10;;;3.80;99.90;;;;;;5132809;27;20502;-80
2022/03/22 02:58:33;;;;;;;62.57;40.17;;;3.80;99.90;;;;;;5115650;28;20031;-80
2022/03/22 03:00:59;;;;;;;60.27;40.00;;;3.80;99.90;;;;;;5132789;27;20055;-76
2022/03/22 03:03:25;;;;;;;65.80;40.43;;;3.80;99.90;;;;;;5115391;28;20100;-76
2022/03/22 03:05:51;;;;;;;62.77;41.23;;;3.80;99.90;;;;;;5115311;28;20039;-80
2022/03/22 03:08:18;;;;;;;70.63;44.17;;;3.90;99.90;;;;;;5132402;27;20039;-76
2022/03/22 03:10:45;;;;;;;65.70;41.03;;;3.80;99.90;;;;;;5132295;28;20084;-76
2022/03/22 03:13:11;;;;;;;66.28;41.10;;;3.90;99.90;;;;;;5115424;28;20046;-80
2022/03/22 03:15:37;;;;;;;72.77;42.03;;;3.90;99.90;;;;;;5098945;28;20043;-80
2022/03/22 03:18:03;;;;;;;62.60;41.77;;;3.90;99.90;;;;;;5132681;28;20057;-76
2022/03/22 03:20:30;;;;;;;66.90;42.23;;;3.90;99.90;;;;;;5132354;28;20076;-80
2022/03/22 03:22:56;;;;;;;63.17;42.70;;;3.90;99.90;;;;;;5132498;28;20371;-76
2022/03/22 03:25:22;;;;;;;64.87;41.77;;;3.90;99.90;;;;;;5115163;28;20054;-75
2022/03/22 03:27:49;;;;;;;65.43;43.07;;;4.00;99.90;;;;;;5115121;28;20047;-80
2022/03/22 03:30:15;;;;;;;64.20;40.47;;;4.00;99.90;;;;;;5132592;28;20065;-80
2022/03/22 03:32:41;;;;;;;61.57;41.47;;;4.00;99.90;;;;;;5132550;28;20401;-80
2022/03/22 03:35:07;;;;;;;68.67;42.63;;;4.00;99.90;;;;;;5132135;28;20039;-76
2022/03/22 03:37:36;;;;;;;62.63;43.17;;;4.00;99.90;;;;;;5115022;28;20424;-76
2022/03/22 03:40:04;;;;;;;60.40;41.30;;;3.90;99.90;;;;;;5132213;28;20039;-80
2022/03/22 03:42:29;;;;;;;57.47;39.37;;;3.90;99.90;;;;;;5132178;28;20051;-75
2022/03/22 03:47:40;;;;;;;62.43;40.63;;;3.90;99.90;;;;;;5117572;28;20054;-80
2022/03/22 03:50:07;;;;;;;63.90;40.67;;;3.90;99.90;;;;;;5115175;28;20039;-76
2022/03/22 03:52:35;;;;;;;59.37;40.50;;;3.80;99.90;;;;;;5131950;28;20043;-80
2022/03/22 03:55:03;;;;;;;62.70;40.83;;;3.90;99.90;;;;;;5115042;28;20603;-80
2022/03/22 03:57:29;;;;;;;66.60;42.00;;;3.80;99.90;;;;;;5115120;28;20047;-76
2022/03/22 03:59:56;;;;;;;65.53;41.63;;;3.80;99.90;;;;;;5131914;28;20120;-75
2022/03/22 04:02:23;;;;;;;66.47;41.90;;;3.80;99.90;;;;;;5132130;28;20397;-80
2022/03/22 04:04:52;;;;;;;64.40;40.97;;;3.70;99.90;;;;;;5115124;28;20089;-75
2022/03/22 04:07:23;;;;;;;61.50;39.47;;;3.70;99.90;;;;;;5097950;28;20131;-80
2022/03/22 04:09:49;;;;;;;68.63;41.50;;;3.70;99.90;;;;;;5131930;28;20051;-76
2022/03/22 04:12:15;;;;;;;67.57;42.60;;;3.70;99.90;;;;;;5114686;28;20078;-76
2022/03/22 04:14:41;;;;;;;59.93;40.80;;;3.80;99.90;;;;;;5132098;27;20043;-80
2022/03/22 04:17:08;;;;;;;64.93;39.77;;;3.80;99.90;;;;;;5118643;27;20521;-76
2022/03/22 04:19:35;;;;;;;57.97;40.00;;;3.80;99.90;;;;;;5119083;27;20042;-76
2022/03/22 04:22:02;;;;;;;61.77;41.10;;;3.90;99.90;;;;;;5101883;27;20074;-80
2022/03/22 04:24:28;;;;;;;57.73;39.30;;;3.90;99.90;;;;;;5135993;27;20493;-76
2022/03/22 04:26:55;;;;;;;66.87;40.97;;;3.90;99.90;;;;;;5135759;27;20047;-76
2022/03/22 04:34:50;;;;;;;62.40;40.03;;;4.00;99.90;;;;;;5121160;27;20047;-80
2022/03/22 04:37:17;;;;;;;61.80;39.67;;;4.00;99.90;;;;;;5118069;27;20454;-80
2022/03/22 04:39:45;;;;;;;63.40;41.03;;;4.00;99.90;;;;;;5135551;27;20126;-76
2022/03/22 04:42:15;;;;;;;70.67;41.20;;;4.00;99.90;;;;;;5135213;27;20130;-75
2022/03/22 04:44:42;;;;;;;63.23;40.93;;;3.90;99.90;;;;;;5135686;27;20442;-80
2022/03/22 04:47:08;;;;;;;54.33;38.13;;;3.90;99.90;;;;;;5135191;27;20042;-75
2022/03/22 04:49:34;;;;;;;65.37;42.53;;;3.90;99.90;;;;;;5135114;27;20606;-80
2022/03/22 04:57:29;;;;;;;64.17;42.47;;;3.90;99.90;;;;;;5135113;27;20701;-75
2022/03/22 04:59:55;;;;;;;63.85;41.70;;;3.90;99.90;;;;;;5100730;27;20042;-80
2022/03/22 05:02:21;;;;;;;71.00;43.27;;;3.90;99.90;;;;;;5084013;27;20394;-76
2022/03/22 05:04:47;;;;;;;59.67;40.40;;;3.90;99.90;;;;;;5117596;27;20083;-80
2022/03/22 05:07:13;;;;;;;64.40;41.30;;;4.00;99.90;;;;;;5117452;27;20126;-75
2022/03/22 05:09:38;;;;;;;64.20;40.60;;;4.00;99.90;;;;;;5134357;27;20395;-75
2022/03/22 05:12:05;;;;;;;68.07;42.93;;;4.00;99.90;;;;;;5117296;27;20504;-80
2022/03/22 05:14:32;;;;;;;66.38;43.33;;;4.10;99.90;;;;;;5100427;27;20045;-76
2022/03/22 05:16:58;;;;;;;63.72;39.58;;;4.10;99.90;;;;;;5117430;27;20039;-80
2022/03/22 05:19:25;;;;;;;62.30;42.53;;;4.10;99.90;;;;;;5135012;27;20047;-80
2022/03/22 05:21:51;;;;;;;62.10;41.33;;;4.10;99.90;;;;;;5117500;27;20039;-80
2022/03/22 05:24:17;;;;;;;62.75;41.60;;;4.20;99.90;;;;;;5117276;27;20039;-75
2022/03/22 05:26:45;;;;;;;60.03;40.13;;;4.10;99.90;;;;;;5100259;27;20104;-80
2022/03/22 05:29:11;;;;;;;62.37;40.63;;;4.10;99.90;;;;;;5116977;27;20043;-76
2022/03/22 05:31:38;;;;;;;62.37;40.97;;;4.10;99.90;;;;;;5099915;27;20062;-80
2022/03/22 05:34:04;;;;;;;58.67;40.13;;;4.10;99.90;;;;;;5134044;27;20043;-75
2022/03/22 05:36:30;;;;;;;57.83;39.70;;;4.10;99.90;;;;;;5133946;27;20046;-75
2022/03/22 05:38:56;;;;;;;58.90;40.27;;;4.10;99.90;;;;;;5100178;27;20043;-81
2022/03/22 05:41:23;;;;;;;62.00;38.63;;;4.10;99.90;;;;;;5134157;27;20095;-75
2022/03/22 05:43:48;;;;;;;64.40;41.57;;;4.10;99.90;;;;;;5133899;27;20091;-75
2022/03/22 05:46:17;;;;;;;61.57;40.53;;;4.10;99.90;;;;;;5133647;27;20035;-76
2022/03/22 05:48:44;;;;;;;59.87;41.03;;;4.10;99.90;;;;;;5116702;27;20047;-80
2022/03/22 05:51:10;;;;;;;64.10;42.33;;;4.10;99.90;;;;;;5133593;27;20050;-75
2022/03/22 05:53:36;;;;;;;65.57;40.20;;;4.10;99.90;;;;;;5133387;27;20035;-80
2022/03/22 05:56:03;;;;;;;63.37;42.07;;;4.10;99.90;;;;;;5116752;27;20421;-76
2022/03/22 05:58:28;;;;;;;62.30;41.30;;;4.10;99.90;;;;;;5116503;27;20100;-75
2022/03/22 06:00:55;;;;;;;62.45;39.47;;;4.10;99.90;;;;;;5133462;27;20047;-80
2022/03/22 06:03:21;;;;;;;61.47;40.33;;;4.20;99.90;;;;;;5116418;27;20043;-81
2022/03/22 06:05:49;;;;;;;63.83;41.97;;;4.20;99.90;;;;;;5116537;27;20435;-76
2022/03/22 06:08:15;;;;;;;57.63;39.73;;;4.30;99.90;;;;;;5099500;27;20050;-80
2022/03/22 06:10:41;;;;;;;58.90;36.97;;;4.30;99.90;;;;;;5116288;27;20062;-75
2022/03/22 06:13:07;;;;;;;56.67;38.00;;;4.40;99.90;;;;;;5116193;27;20451;-81
2022/03/22 06:15:34;;;;;;;58.80;38.17;;;4.50;99.90;;;;;;5115999;27;20039;-80
2022/03/22 06:18:04;;;;;;;60.23;40.50;;;4.50;99.90;;;;;;5116021;27;20099;-80
2022/03/22 06:20:33;;;;;;;52.00;36.73;;;4.60;99.90;;;;;;5133362;27;20453;-80
2022/03/22 06:23:04;;;;;;;54.33;37.58;;;4.70;99.90;;;;;;5132927;27;20051;-80
2022/03/22 06:25:31;;;;;;;57.30;37.73;;;4.70;99.90;;;;;;5115963;27;20080;-75
2022/03/22 06:27:57;;;;;;;60.70;38.92;;;4.70;99.90;;;;;;5116199;27;20509;-76
2022/03/22 06:30:25;;;;;;;53.40;37.47;;;4.70;99.90;;;;;;5132972;27;20039;-75
2022/03/22 06:32:52;;;;;;;57.25;36.80;;;4.80;99.90;;;;;;5116520;27;20112;-75
2022/03/22 06:35:20;;;;;;;54.38;35.80;;;4.80;99.90;;;;;;5133379;27;20498;-75
2022/03/22 06:37:48;;;;;;;59.58;38.03;;;4.80;99.90;;;;;;5132826;27;20050;-75
2022/03/22 06:40:15;;;;;;;50.88;37.05;;;4.90;99.90;;;;;;5116002;27;20039;-75
2022/03/22 06:42:41;;;;;;;56.17;36.05;;;4.90;99.90;;;;;;5115496;27;20050;-76
2022/03/22 06:45:10;;;;;;;60.85;38.63;;;4.90;99.90;;;;;;5132741;27;20043;-75
2022/03/22 06:47:39;;;;;;;52.10;35.72;;;5.00;99.90;;;;;;5132515;27;20043;-75
2022/03/22 06:50:06;;;;;;;52.92;35.65;;;5.10;99.90;;;;;;5115833;27;20043;-75
2022/03/22 06:52:32;;;;;;;53.70;36.60;;;5.10;99.90;;;;;;5132773;27;20401;-76
2022/03/22 06:54:58;;;;;;;51.92;36.00;;;5.20;99.90;;;;;;5115404;27;20043;-79
2022/03/22 06:57:27;;;;;;;55.38;39.05;;;5.20;99.90;;;;;;5132703;27;20101;-76
2022/03/22 06:59:52;;;;;;;50.40;36.28;;;5.30;99.90;;;;;;5132720;27;20559;-80
2022/03/22 07:02:18;;;;;;;56.90;36.70;;;5.40;99.90;;;;;;5115124;27;20134;-80
2022/03/22 07:04:45;;;;;;;57.23;36.07;;;5.50;99.90;;;;;;5115645;28;20099;-76
2022/03/22 07:07:11;;;;;;;56.10;35.78;;;5.60;99.90;;;;;;5115145;28;20043;-80
2022/03/22 07:09:36;;;;;;;57.22;35.38;;;5.60;99.90;;;;;;5114863;28;20058;-76
2022/03/22 07:12:02;;;;;;;54.92;36.35;;;5.70;99.90;;;;;;5115436;28;20043;-81
2022/03/22 07:14:28;;;;;;;48.42;34.67;;;5.80;99.90;;;;;;5132664;28;20316;-80
2022/03/22 07:16:54;;;;;;;51.47;35.03;;;5.90;99.90;;;;;;5132415;28;20050;-80
2022/03/22 07:19:22;;;;;;;48.42;34.90;;;5.90;99.90;;;;;;5098443;28;20083;-75
2022/03/22 07:21:48;;;;;;;51.08;35.17;;;6.10;99.90;;;;;;5132439;28;20047;-76
2022/03/22 07:24:18;;;;;;;52.28;33.83;;;6.20;99.90;;;;;;5132408;28;20039;-80
2022/03/22 07:26:44;;;;;;;48.42;33.28;;;6.30;99.90;;;;;;5132385;28;20047;-81
2022/03/22 07:29:10;;;;;;;46.70;35.40;;;6.50;98.70;;;;;;5115021;28;20077;-76
2022/03/22 07:31:40;;;;;;;48.38;34.38;;;6.60;77.40;;;;;;5132063;28;20041;-81
2022/03/22 07:34:08;;;;;;;54.63;34.88;;;6.80;41.60;;;;;;5132053;28;20039;-76
2022/03/22 07:36:37;;;;;;;47.83;33.45;;;7.00;3.60;;;;;;5115217;28;20414;-81
2022/03/22 07:39:07;;;;;;;45.90;33.83;;;7.10;1.00;;;;;;5115771;28;20074;-76
2022/03/22 07:41:36;;;;;;;49.90;34.08;;;7.30;1.00;;;;;;5132011;28;20046;-81
2022/03/22 07:44:06;;;;;;;43.30;32.28;;;7.40;1.00;;;;;;5115019;28;20043;-76
2022/03/22 07:46:36;;;;;;;49.33;33.00;;;7.60;1.00;;;;;;5131978;28;20126;-76
2022/03/22 07:54:31;;;;;;;42.00;32.10;;;7.90;1.00;;;;;;5135854;27;20108;-80
2022/03/22 07:56:57;;;;;;;45.92;33.40;;;7.90;1.00;;;;;;5118566;27;20043;-81
2022/03/22 07:59:27;;;;;;;44.83;33.55;;;7.90;1.00;;;;;;5135974;27;20043;-80
2022/03/22 08:01:53;;;;;;;47.42;34.17;;;8.00;1.00;;;;;;5119129;27;20389;-76
2022/03/22 08:04:18;;;;;;;47.45;31.80;;;8.20;1.00;;;;;;5135715;27;20051;-80
2022/03/22 08:06:44;;;;;;;43.35;30.75;;;8.30;1.00;;;;;;5118502;27;20088;-81
2022/03/22 08:09:10;;;;;;;42.20;31.77;;;8.50;1.00;;;;;;5135303;27;20138;-81
2022/03/22 08:11:36;;;;;;;43.10;31.13;;;8.60;1.00;;;;;;5135743;27;20047;-75
2022/03/22 08:14:04;;;;;;;42.50;32.05;;;8.80;1.00;;;;;;5135713;27;20569;-81
2022/03/22 08:16:31;;;;;;;40.35;31.85;;;9.00;1.00;;;;;;5135466;27;20126;-76
2022/03/22 08:18:56;;;;;;;44.28;32.78;;;9.20;1.00;;;;;;5135954;27;20366;-76
2022/03/22 08:21:23;;;;;;;44.38;32.28;;;9.50;99.90;;;;;;5118240;27;20054;-76
2022/03/22 08:23:48;;;;;;;43.75;31.17;;;9.80;99.90;;;;;;5118508;27;20057;-76
2022/03/22 08:26:14;;;;;;;44.35;31.38;;;10.00;99.90;;;;;;5135491;27;20035;-81
2022/03/22 08:28:42;;;;;;;42.15;31.42;;;10.40;99.90;;;;;;5135287;27;20044;-78
2022/03/22 08:31:11;;;;;;;42.42;30.20;;;10.70;99.90;;;;;;5117970;27;20043;-81
2022/03/22 08:33:37;;;;;;;42.03;30.48;;;11.10;99.90;;;;;;5118322;27;20058;-76
2022/03/22 08:36:03;;;;;;;38.78;30.33;;;11.40;99.90;;;;;;5118054;27;20047;-81
2022/03/22 08:38:29;;;;;;;40.75;29.40;;;11.70;99.90;;;;;;5118476;27;20487;-76
2022/03/22 08:40:58;;;;;;;38.30;29.38;;;12.10;98.00;;;;;;5135232;27;20039;-76
2022/03/22 08:43:28;;;;;;;38.65;27.70;;;12.30;7.00;;;;;;5135047;27;20470;-76
2022/03/22 08:45:55;;;;;;;38.72;28.63;;;12.40;1.00;;;;;;5135084;27;20050;-81
2022/03/22 08:48:21;;;;;;;38.45;29.55;;;12.50;1.00;;;;;;5135321;27;20039;-76
2022/03/22 08:50:49;;;;;;;41.95;28.15;;;12.60;1.00;;;;;;5135116;27;20047;-76
2022/03/22 08:53:20;;;;;;;38.85;28.85;;;12.60;1.00;;;;;;5135051;27;20043;-76
2022/03/22 08:55:48;;;;;;;37.78;28.55;;;12.70;1.00;;;;;;5101536;27;20092;-81
2022/03/22 08:58:14;;;;;;;42.28;29.13;;;12.90;1.00;;;;;;5118301;27;20489;-81
2022/03/22 09:00:40;;;;;;;38.38;28.20;;;12.90;99.90;;;;;;5100614;27;20039;-81
2022/03/22 09:03:08;;;;;;;36.63;28.88;;;13.10;99.90;;;;;;5134701;27;20047;-81
2022/03/22 09:08:19;;;;;;;39.85;27.23;;;13.20;99.90;;;;;;5134791;27;20051;-81
2022/03/22 09:10:46;;;;;;;40.33;29.60;;;13.30;99.90;;;;;;5117483;27;20054;-80
2022/03/22 09:13:13;;;;;;;37.67;28.70;;;13.30;99.90;;;;;;5117733;27;20043;-81
2022/03/22 09:15:39;;;;;;;40.83;28.83;;;13.40;99.90;;;;;;5134400;27;20062;-81
2022/03/22 09:21:00;;;;;;;38.97;29.02;;;13.50;99.90;;;;;;5130885;27;20511;-81
2022/03/22 09:23:26;;;;;;;38.90;28.35;;;13.70;99.90;;;;;;5117561;27;20043;-81
2022/03/22 09:25:54;;;;;;;36.10;28.65;;;14.20;99.90;;;;;;5117199;27;20114;-76
2022/03/22 09:28:20;;;;;;;37.45;26.52;;;15.10;99.90;;;;;;5117418;27;20039;-81
2022/03/22 09:30:48;;;;;;;39.40;29.13;;;15.90;99.90;;;;;;5134226;27;20108;-77
2022/03/22 09:33:14;;;;;;;36.90;28.08;;;16.20;96.60;;;;;;5117209;27;20043;-76
2022/03/22 09:35:39;;;;;;;33.63;26.95;;;16.40;1.40;;;;;;5116875;27;20598;-76
2022/03/22 09:38:06;;;;;;;33.08;27.50;;;16.30;1.00;;;;;;5099734;27;20043;-78
2022/03/22 09:40:32;;;;;;;35.10;27.70;;;16.60;1.00;;;;;;5116734;27;20043;-81
2022/03/22 09:42:57;;;;;;;34.63;27.05;;;16.90;1.00;;;;;;5116824;27;20409;-76
2022/03/22 09:45:26;;;;;;;32.90;27.17;;;17.50;1.00;;;;;;5133795;27;20044;-77
2022/03/22 09:47:52;;;;;;;35.47;26.88;;;17.70;1.00;;;;;;5133936;27;20066;-81
2022/03/22 09:50:20;;;;;;;35.10;27.98;;;18.00;1.00;;;;;;5133804;27;20059;-81
2022/03/22 09:52:46;;;;;;;34.25;26.90;;;18.30;1.00;;;;;;5116981;27;20126;-81
2022/03/22 09:55:15;;;;;;;35.53;26.02;;;18.40;1.00;;;;;;5099973;27;20150;-77
2022/03/22 09:57:40;;;;;;;33.28;26.70;;;18.60;1.00;;;;;;5116902;27;20470;-81
2022/03/22 10:00:08;;;;;;;33.28;27.15;;;18.60;1.00;;;;;;5116653;27;20151;-81
2022/03/22 10:02:35;;;;;;;32.85;27.63;;;18.70;1.00;;;;;;5116528;27;20126;-76
2022/03/22 10:05:02;;;;;;;41.42;27.35;;;19.00;1.00;;;;;;5133621;27;20047;-76
2022/03/22 10:07:28;;;;;;;31.27;26.55;;;19.20;1.00;;;;;;5099914;27;20514;-76
2022/03/22 10:10:05;;;;;;;34.47;26.75;;;19.40;1.00;;;;;;5133636;27;20047;-76
2022/03/22 10:12:36;;;;;;;35.38;26.08;;;19.90;99.90;;;;;;5115963;28;20092;-81
2022/03/22 10:15:11;;;;;;;34.90;26.42;;;20.20;99.90;;;;;;5133695;27;20400;-81
2022/03/22 10:17:37;;;;;;;31.48;26.67;;;20.30;99.90;;;;;;5133284;27;20042;-77
2022/03/22 10:20:08;;;;;;;35.78;25.85;;;20.40;99.90;;;;;;5133269;27;20463;-77
2022/03/22 10:22:35;;;;;;;30.55;26.80;;;20.50;99.90;;;;;;5133114;27;20051;-82
2022/03/22 10:25:05;;;;;;;33.05;24.80;;;20.60;99.90;;;;;;5116009;27;20035;-81
2022/03/22 10:27:37;;;;;;;32.05;25.23;;;20.60;99.90;;;;;;5133017;27;20075;-81
2022/03/22 10:30:06;;;;;;;32.30;24.95;;;20.90;99.90;;;;;;5133414;27;20051;-77
2022/03/22 10:32:51;;;;;;;35.60;27.73;;;21.00;99.90;;;;;;5133010;27;20031;-81
2022/03/22 10:35:25;;;;;;;32.20;26.42;;;21.20;99.90;;;;;;5133156;27;20481;-76
2022/03/22 10:37:57;;;;;;;34.47;27.08;;;21.20;99.90;;;;;;5133011;27;20039;-77
2022/03/22 10:40:32;;;;;;;30.13;24.92;;;21.20;99.90;;;;;;5133095;27;20516;-76
2022/03/22 10:43:06;;;;;;;30.08;25.13;;;21.40;99.90;;;;;;5115824;27;20546;-76
2022/03/22 10:45:43;;;;;;;33.35;25.52;;;21.70;99.90;;;;;;5132824;27;20039;-81
2022/03/22 10:48:09;;;;;;;28.75;23.77;;;21.80;99.90;;;;;;5132576;27;20057;-76
2022/03/22 10:50:39;;;;;;;32.70;25.65;;;21.90;99.90;;;;;;5115784;28;20039;-76
2022/03/22 10:53:05;;;;;;;31.02;25.08;;;22.30;99.90;;;;;;5132691;27;20050;-81
2022/03/22 10:55:31;;;;;;;31.95;24.42;;;22.50;99.90;;;;;;5132688;27;20047;-76
2022/03/22 10:57:59;;;;;;;30.85;23.40;;;22.60;99.90;;;;;;5133051;27;20383;-76
2022/03/22 11:00:26;;;;;;;29.98;24.10;;;22.50;99.90;;;;;;5132896;27;20082;-81
2022/03/22 11:02:55;;;;;;;33.28;24.58;;;22.50;99.90;;;;;;5098910;27;20071;-76
2022/03/22 11:05:23;;;;;;;41.92;31.88;;;22.50;99.90;;;;;;5132603;27;20080;-82
2022/03/22 11:07:51;;;;;;;32.28;25.20;;;22.80;99.90;;;;;;5132543;27;20047;-82
2022/03/22 11:10:28;;;;;;;29.23;23.40;;;22.70;99.90;;;;;;5132475;27;20525;-76
2022/03/22 11:12:54;;;;;;;33.33;24.60;;;23.00;99.90;;;;;;5132323;28;20089;-82
2022/03/22 11:15:21;;;;;;;32.22;24.10;;;23.10;99.90;;;;;;5132767;28;20083;-78
2022/03/22 11:17:49;;;;;;;30.50;23.27;;;23.10;99.90;;;;;;5115450;28;20079;-81
2022/03/22 11:20:17;;;;;;;31.90;23.67;;;23.40;99.90;;;;;;5132435;28;20256;-77
2022/03/22 11:23:05;;;;;;;34.75;25.30;;;23.50;99.90;;;;;;5115177;28;20149;-76
2022/03/22 11:25:35;;;;;;;29.15;23.50;;;23.40;99.90;;;;;;5118141;27;20513;-77
2022/03/22 11:28:11;;;;;;;32.60;23.33;;;23.30;99.90;;;;;;5119951;27;20047;-77
2022/03/22 11:30:39;;;;;;;30.08;23.02;;;23.50;99.90;;;;;;5137117;27;20516;-81
2022/03/22 11:35:54;;;;;;;30.85;22.90;;;23.50;99.90;;;;;;5136912;27;20134;-82
2022/03/22 11:38:45;;;;;;;29.60;22.02;;;23.50;99.90;;;;;;5137087;27;20439;-81
2022/03/22 11:44:36;;;;;;;31.17;21.88;;;23.20;99.90;;;;;;5136539;27;20489;-82
2022/03/22 11:47:12;;;;;;;33.67;22.67;;;23.40;99.90;;;;;;5103630;27;20054;-77
2022/03/22 11:50:05;;;;;;;31.60;22.38;;;23.50;99.90;;;;;;5136572;27;20047;-81
2022/03/22 11:52:35;;;;;;;29.35;23.88;;;23.80;99.90;;;;;;5125668;27;20087;-76
2022/03/22 11:55:15;;;;;;;32.45;22.80;;;24.00;99.90;;;;;;5136173;27;20566;-81
2022/03/22 11:57:47;;;;;;;30.80;22.92;;;24.10;99.90;;;;;;5136125;27;20125;-81
2022/03/22 12:00:16;;;;;;;31.25;21.98;;;24.20;99.90;;;;;;5135929;27;20035;-81
2022/03/22 12:02:52;;;;;;;30.83;22.00;;;24.30;99.90;;;;;;5135783;27;20035;-82
2022/03/22 12:05:24;;;;;;;26.85;21.52;;;24.50;99.90;;;;;;5118692;27;20134;-81
2022/03/22 12:07:51;;;;;;;33.60;23.30;;;24.50;99.90;;;;;;5135922;27;20039;-82
2022/03/22 12:10:19;;;;;;;29.80;23.08;;;24.70;99.90;;;;;;5135396;27;20096;-77
2022/03/22 12:12:50;;;;;;;28.88;22.83;;;24.70;99.90;;;;;;5128148;27;20398;-81
2022/03/22 12:15:25;;;;;;;31.17;21.20;;;24.80;99.90;;;;;;5116048;27;20039;-76
2022/03/22 12:17:52;;;;;;;30.15;23.55;;;24.90;99.90;;;;;;5095435;28;20127;-82
2022/03/22 12:20:20;;;;;;;28.67;21.83;;;24.70;99.90;;;;;;5097727;28;20050;-77
2022/03/22 12:22:50;;;;;;;28.23;21.15;;;24.70;99.90;;;;;;5121836;27;20513;-77
2022/03/22 12:25:20;;;;;;;31.23;22.95;;;24.60;99.90;;;;;;5098373;28;20039;-77
2022/03/22 12:27:58;;;;;;;32.92;22.63;;;24.50;99.90;;;;;;5105964;28;20145;-76
2022/03/22 12:30:26;;;;;;;29.52;22.20;;;24.20;99.90;;;;;;5132808;27;20059;-77
2022/03/22 12:32:53;;;;;;;29.27;21.42;;;24.20;99.90;;;;;;5135426;27;20485;-77
2022/03/22 12:35:20;;;;;;;31.58;21.23;;;24.10;99.90;;;;;;5135178;27;20519;-76
2022/03/22 12:37:48;;;;;;;25.92;19.90;;;24.00;99.90;;;;;;5117668;27;20039;-77
2022/03/22 12:40:16;;;;;;;30.10;22.55;;;23.70;99.90;;;;;;5117831;27;20035;-82
2022/03/22 12:42:43;;;;;;;29.38;21.33;;;23.70;99.90;;;;;;5134825;27;20050;-82
2022/03/22 12:45:11;;;;;;;26.52;21.23;;;24.10;99.90;;;;;;5118089;27;20039;-81
2022/03/22 12:47:40;;;;;;;28.70;21.30;;;24.30;99.90;;;;;;5118046;27;20043;-76
2022/03/22 12:50:08;;;;;;;29.40;22.45;;;24.60;99.90;;;;;;5134982;27;20057;-77
2022/03/22 12:52:35;;;;;;;28.17;21.58;;;24.60;99.90;;;;;;5135114;27;20586;-82
2022/03/22 12:55:01;;;;;;;29.58;22.10;;;24.50;99.90;;;;;;5134736;27;20039;-82
2022/03/22 12:57:28;;;;;;;31.13;21.52;;;24.60;99.90;;;;;;5134739;27;20051;-76
2022/03/22 12:59:54;;;;;;;35.60;22.30;;;24.90;99.90;;;;;;5134635;27;20051;-81
2022/03/22 13:02:20;;;;;;;29.90;21.95;;;25.10;99.90;;;;;;5134724;27;20088;-81
2022/03/22 13:04:49;;;;;;;31.05;21.77;;;25.10;99.90;;;;;;5134480;27;20404;-82
2022/03/22 13:07:26;;;;;;;28.50;21.60;;;24.70;99.90;;;;;;5118040;27;20046;-82
2022/03/22 13:12:38;;;;;;;30.95;21.13;;;24.40;99.90;;;;;;5134164;27;20047;-81
2022/03/22 13:15:07;;;;;;;29.35;22.10;;;24.60;99.90;;;;;;5134342;27;20047;-77
2022/03/22 13:17:45;;;;;;;27.55;20.58;;;24.90;99.90;;;;;;5134322;27;20057;-82